Time;durP1;ratioP1;P1;durP2;ratioP2;P2;SDS_P1;SDS_P2;PMS_P1;PMS_P2;Temp;Humidity;BMP_temperature;BMP_pressure;BME280_temperature;BME280_humidity;BME280_pressure;Samples;Min_cycle;Max_cycle;Signal;HPM_P1;HPM_P2
2022/09/15 00:02:16;;;;;;;26.60;17.08;;;;;;;15.64;100.00;97902.63;8407548;28;20076;-83
2022/09/15 00:06:17;;;;;;;26.08;17.17;;;;;;;15.60;100.00;97908.00;8400671;28;20055;-82
2022/09/15 00:10:18;;;;;;;26.92;15.27;;;;;;;15.59;100.00;97917.34;8416434;28;20470;-83
2022/09/15 00:14:19;;;;;;;26.08;15.82;;;;;;;15.57;100.00;97922.34;8401329;28;20132;-82
2022/09/15 00:18:20;;;;;;;27.92;16.45;;;;;;;15.56;100.00;97918.06;8357841;28;21082;-81
2022/09/15 00:22:22;;;;;;;24.55;17.27;;;;;;;15.56;100.00;97912.63;8374196;28;20045;-83
2022/09/15 00:26:25;;;;;;;22.98;16.60;;;;;;;15.55;100.00;97910.25;8376315;28;20122;-83
2022/09/15 00:30:26;;;;;;;27.67;17.02;;;;;;;15.57;100.00;97897.88;8340299;28;20052;-82
2022/09/15 00:34:27;;;;;;;27.23;18.33;;;;;;;15.59;100.00;97906.44;8349339;28;20537;-81
2022/09/15 00:38:29;;;;;;;30.30;18.75;;;;;;;15.53;100.00;97902.47;8369240;28;20143;-82
2022/09/15 00:42:30;;;;;;;29.80;18.67;;;;;;;15.52;100.00;97890.03;8361997;28;20076;-83
2022/09/15 00:46:34;;;;;;;31.60;19.92;;;;;;;15.53;100.00;97897.03;8348386;28;20060;-84
2022/09/15 00:50:36;;;;;;;27.60;20.92;;;;;;;15.48;100.00;97886.47;8405263;28;20539;-84
2022/09/15 00:54:37;;;;;;;30.05;21.45;;;;;;;15.45;100.00;97879.03;8400042;28;20036;-82
2022/09/15 00:58:45;;;;;;;38.80;23.52;;;;;;;15.42;100.00;97874.31;8381241;28;20056;-82
2022/09/15 01:02:47;;;;;;;39.30;23.75;;;;;;;15.41;100.00;97874.69;8399052;28;20049;-84
2022/09/15 01:06:52;;;;;;;34.97;24.23;;;;;;;15.35;100.00;97874.22;8414496;28;20053;-83
2022/09/15 01:10:53;;;;;;;37.17;24.60;;;;;;;15.32;100.00;97874.97;8421242;28;20049;-83
2022/09/15 01:14:54;;;;;;;42.50;25.95;;;;;;;15.35;100.00;97868.78;8406602;28;20501;-81
2022/09/15 01:19:20;;;;;;;37.63;24.50;;;;;;;15.35;100.00;97879.66;8403658;28;20089;-84
2022/09/15 01:23:27;;;;;;;39.65;25.45;;;;;;;15.31;100.00;97873.41;8420324;28;20049;-83
2022/09/15 01:28:15;;;;;;;35.92;25.63;;;;;;;15.26;100.00;97871.00;8403143;28;20044;-83
2022/09/15 01:36:57;;;;;;;39.05;25.17;;;;;;;15.32;100.00;97864.09;8296282;28;20072;-81
2022/09/15 01:41:24;;;;;;;36.30;25.60;;;;;;;15.33;100.00;97868.41;8279382;28;20054;-83
2022/09/15 01:45:29;;;;;;;41.70;25.17;;;;;;;15.34;100.00;97872.66;8295289;28;20046;-81
2022/09/15 01:49:34;;;;;;;36.95;24.52;;;;;;;15.31;100.00;97862.53;8278519;28;20427;-79
2022/09/15 01:53:36;;;;;;;39.60;25.48;;;;;;;15.32;100.00;97874.97;8230944;28;20151;-82
2022/09/15 01:57:37;;;;;;;39.20;25.08;;;;;;;15.32;100.00;97885.88;8217971;28;20047;-82
2022/09/15 02:02:36;;;;;;;37.65;25.40;;;;;;;15.30;100.00;97888.16;8230198;28;20045;-82
2022/09/15 02:06:48;;;;;;;37.10;24.38;;;;;;;15.28;100.00;97885.00;8153076;28;20082;-84
2022/09/15 02:11:03;;;;;;;43.25;22.02;;;;;;;15.20;100.00;97899.69;8214528;28;20058;-83
2022/09/15 02:15:08;;;;;;;29.10;13.82;;;;;;;15.05;100.00;97903.34;8230543;28;20103;-83
2022/09/15 02:19:48;;;;;;;25.17;13.00;;;;;;;14.94;100.00;97903.19;8214425;28;20466;-86
2022/09/15 02:23:52;;;;;;;24.40;12.68;;;;;;;14.88;100.00;97903.88;8197650;28;20070;-84
2022/09/15 02:27:56;;;;;;;26.23;12.10;;;;;;;14.86;100.00;97911.63;8197975;28;20589;-83
2022/09/15 02:31:58;;;;;;;23.20;12.63;;;;;;;14.82;100.00;97911.56;8227452;28;20409;-82
2022/09/15 02:36:00;;;;;;;24.90;11.15;;;;;;;14.74;100.00;97916.09;8229441;28;20073;-84
2022/09/15 02:40:01;;;;;;;16.58;9.80;;;;;;;14.65;100.00;97915.56;8234277;28;20133;-82
2022/09/15 02:44:03;;;;;;;25.48;11.50;;;;;;;14.64;100.00;97916.72;8341537;28;20048;-82
2022/09/15 02:48:08;;;;;;;21.40;10.65;;;;;;;14.56;100.00;97919.66;8359745;28;20060;-83
2022/09/15 02:52:11;;;;;;;17.75;9.90;;;;;;;14.55;100.00;97913.44;8373948;28;20045;-81
2022/09/15 02:56:12;;;;;;;18.33;10.38;;;;;;;14.52;100.00;97908.75;8369440;28;20053;-82
2022/09/15 03:00:15;;;;;;;22.60;10.05;;;;;;;14.50;100.00;97911.03;8413435;28;20072;-84
2022/09/15 03:04:17;;;;;;;26.05;11.80;;;;;;;14.53;100.00;97902.19;8413894;28;20406;-83
2022/09/15 03:08:18;;;;;;;33.28;11.50;;;;;;;14.51;100.00;97912.63;8404734;28;20055;-82
2022/09/15 03:12:19;;;;;;;24.45;11.65;;;;;;;14.54;100.00;97906.44;8408198;28;20089;-82
2022/09/15 03:16:20;;;;;;;22.45;10.80;;;;;;;14.52;100.00;97907.97;8423844;28;20498;-81
2022/09/15 03:20:26;;;;;;;23.58;10.18;;;;;;;14.46;100.00;97910.19;8399378;28;20466;-82
2022/09/15 03:24:29;;;;;;;18.08;10.13;;;;;;;14.38;100.00;97902.31;8397787;28;20045;-81
2022/09/15 03:28:30;;;;;;;19.40;9.95;;;;;;;14.36;100.00;97910.78;8404595;28;20067;-81
2022/09/15 03:32:32;;;;;;;24.45;9.18;;;;;;;14.34;100.00;97924.72;8380065;28;20059;-81
2022/09/15 03:36:33;;;;;;;20.08;8.52;;;;;;;14.34;100.00;97924.72;8399310;28;21362;-82
2022/09/15 03:40:36;;;;;;;14.45;7.80;;;;;;;14.36;100.00;97921.66;8394314;28;20053;-82
2022/09/15 03:44:37;;;;;;;12.10;7.18;;;;;;;14.30;100.00;97939.38;8390238;28;20121;-80
2022/09/15 03:48:39;;;;;;;13.20;7.38;;;;;;;14.27;100.00;97961.84;8393665;28;20142;-81
2022/09/15 03:52:40;;;;;;;21.88;7.13;;;;;;;14.27;100.00;97950.97;8391300;28;20049;-82
2022/09/15 03:56:41;;;;;;;13.00;6.55;;;;;;;14.24;100.00;97962.53;8392813;28;20588;-80
2022/09/15 04:00:42;;;;;;;18.85;5.75;;;;;;;14.18;100.00;97969.41;8395333;28;20044;-79
2022/09/15 04:04:43;;;;;;;35.20;12.80;;;;;;;14.10;100.00;97962.28;8398856;28;20731;-81
2022/09/15 04:08:44;;;;;;;170.05;87.65;;;;;;;14.09;100.00;97960.72;8399057;28;20059;-81
2022/09/15 04:12:45;;;;;;;43.33;19.08;;;;;;;14.07;100.00;97958.34;8409431;28;20102;-81
2022/09/15 04:16:46;;;;;;;18.23;6.97;;;;;;;14.08;100.00;97964.56;8375724;28;20079;-82
2022/09/15 04:20:47;;;;;;;15.70;6.35;;;;;;;14.07;100.00;97952.91;8399529;28;20385;-81
2022/09/15 04:24:48;;;;;;;21.05;5.32;;;;;;;14.08;100.00;97959.13;8396771;28;20041;-82
2022/09/15 04:28:50;;;;;;;16.13;5.22;;;;;;;14.03;100.00;97973.78;8419386;28;20516;-81
2022/09/15 04:32:51;;;;;;;14.10;5.18;;;;;;;14.02;100.00;97976.84;8378104;28;20045;-82
2022/09/15 04:36:52;;;;;;;18.63;5.68;;;;;;;14.01;100.00;97980.72;8354940;28;20055;-82
2022/09/15 04:40:54;;;;;;;19.77;5.32;;;;;;;14.01;100.00;97980.72;8399583;28;20072;-82
2022/09/15 04:44:55;;;;;;;15.20;5.68;;;;;;;13.98;100.00;97989.56;8398251;28;20470;-82
2022/09/15 04:48:56;;;;;;;17.48;5.63;;;;;;;13.97;100.00;97980.63;8399104;28;20049;-82
2022/09/15 04:52:57;;;;;;;13.77;5.65;;;;;;;13.96;100.00;97996.13;8396680;28;20056;-80
2022/09/15 04:56:58;;;;;;;23.20;6.75;;;;;;;13.93;100.00;97991.44;8380277;28;20153;-81
2022/09/15 05:01:06;;;;;;;22.42;7.50;;;;;;;13.94;100.00;97993.00;8399888;28;20202;-80
2022/09/15 05:05:07;;;;;;;27.98;8.43;;;;;;;13.93;100.00;97985.22;8417848;28;20076;-81
2022/09/15 05:09:12;;;;;;;23.42;8.63;;;;;;;13.90;100.00;97992.16;8415269;28;20115;-81
2022/09/15 05:13:12;;;;;;;16.48;7.90;;;;;;;13.94;100.00;97993.00;8429209;28;20040;-81
2022/09/15 05:17:14;;;;;;;19.13;9.02;;;;;;;13.99;100.00;97993.88;8421009;28;20433;-81
2022/09/15 05:21:17;;;;;;;21.15;9.35;;;;;;;13.99;100.00;97999.28;8412575;28;20049;-80
2022/09/15 05:25:18;;;;;;;19.77;8.32;;;;;;;13.95;100.00;97991.88;8414149;28;20574;-82
2022/09/15 05:29:19;;;;;;;22.15;9.25;;;;;;;13.96;100.00;98001.56;8427306;28;20055;-81
2022/09/15 05:33:21;;;;;;;22.35;9.75;;;;;;;13.93;100.00;98001.50;8406182;28;20405;-80
2022/09/15 05:37:22;;;;;;;20.83;9.10;;;;;;;13.92;100.00;97998.00;8427225;28;20071;-81
2022/09/15 05:41:24;;;;;;;21.00;10.00;;;;;;;13.93;100.00;97996.88;8412329;28;20071;-81
2022/09/15 05:45:27;;;;;;;20.85;10.32;;;;;;;13.91;100.00;98020.06;8426984;28;20052;-80
2022/09/15 05:49:29;;;;;;;26.55;10.05;;;;;;;13.89;100.00;98034.00;8425603;28;20063;-80
2022/09/15 05:53:30;;;;;;;19.38;10.05;;;;;;;13.85;100.00;98033.13;8426938;28;20094;-81
2022/09/15 05:57:31;;;;;;;18.55;9.32;;;;;;;13.85;100.00;98027.69;8413066;28;20052;-81
2022/09/15 06:01:35;;;;;;;22.38;10.05;;;;;;;13.83;100.00;98035.44;8420441;28;20076;-80
2022/09/15 06:05:36;;;;;;;21.00;9.55;;;;;;;13.81;100.00;98032.28;8400869;28;20052;-80
2022/09/15 06:09:37;;;;;;;23.10;10.10;;;;;;;13.82;100.00;98028.41;8422930;28;20078;-79
2022/09/15 06:13:39;;;;;;;25.00;10.07;;;;;;;13.86;100.00;98029.28;8414074;28;20044;-81
2022/09/15 06:17:39;;;;;;;23.27;10.00;;;;;;;13.93;100.00;98026.72;8432040;28;20094;-79
2022/09/15 06:21:40;;;;;;;21.83;9.80;;;;;;;13.97;100.00;98034.94;8431657;28;20071;-79
2022/09/15 06:25:43;;;;;;;25.38;8.85;;;;;;;13.94;100.00;98031.00;8430093;28;20547;-79
2022/09/15 06:29:44;;;;;;;20.63;8.57;;;;;;;13.91;100.00;98042.56;8417429;28;20086;-78
2022/09/15 06:33:47;;;;;;;25.83;8.85;;;;;;;13.94;100.00;98039.16;8408342;28;20055;-79
2022/09/15 06:37:49;;;;;;;22.13;8.27;;;;;;;13.85;100.00;98035.84;8409710;28;20692;-79
2022/09/15 06:41:50;;;;;;;22.33;8.05;;;;;;;13.86;100.00;98053.69;8400510;28;20067;-80
2022/09/15 06:45:51;;;;;;;31.58;8.75;;;;;;;13.93;100.00;98045.72;8401602;28;20036;-79
2022/09/15 06:49:53;;;;;;;18.58;7.78;;;;;;;14.02;100.00;98036.56;8412641;28;20043;-79
2022/09/15 06:53:54;;;;;;;23.60;7.97;;;;;;;14.05;100.00;98041.28;8421652;28;20063;-80
2022/09/15 06:57:58;;;;;;;19.23;8.43;;;;;;;14.08;100.00;98040.56;8390193;28;20398;-79
2022/09/15 07:01:59;;;;;;;17.83;8.73;;;;;;;14.11;100.00;98051.53;8394987;28;20048;-80
2022/09/15 07:06:01;;;;;;;17.52;8.90;;;;;;;14.14;100.00;98055.44;8407352;28;20417;-80
2022/09/15 07:10:02;;;;;;;29.08;8.85;;;;;;;14.23;100.00;98045.13;8404756;28;20055;-79
2022/09/15 07:14:03;;;;;;;18.20;8.35;;;;;;;14.31;100.00;98055.00;8429980;28;20552;-78
2022/09/15 07:18:05;;;;;;;26.58;9.45;;;;;;;14.35;100.00;98051.22;8429963;28;20139;-80
2022/09/15 07:22:06;;;;;;;21.27;8.98;;;;;;;14.41;100.00;98054.47;8411642;28;20040;-79
2022/09/15 07:26:14;;;;;;;31.77;8.20;;;;;;;14.56;100.00;98061.72;8398045;28;20512;-79
2022/09/15 07:30:16;;;;;;;20.67;7.28;;;;;;;14.58;100.00;98075.75;8394296;28;20056;-79
2022/09/15 07:34:17;;;;;;;19.40;7.43;;;;;;;14.61;100.00;98085.91;8389748;28;20596;-79
2022/09/15 07:38:18;;;;;;;15.20;6.13;;;;;;;14.64;100.00;98085.19;8393874;28;20056;-80
2022/09/15 07:42:19;;;;;;;18.95;6.88;;;;;;;14.74;100.00;98095.47;8360579;28;20040;-79
2022/09/15 07:46:20;;;;;;;24.15;6.90;;;;;;;14.90;100.00;98091.88;8360337;28;20481;-79
2022/09/15 07:50:22;;;;;;;14.88;5.88;;;;;;;15.04;100.00;98097.53;8394810;28;20048;-79
2022/09/15 07:54:23;;;;;;;13.32;5.60;;;;;;;15.17;100.00;98109.81;8377860;28;20045;-79
2022/09/15 07:58:24;;;;;;;17.60;5.38;;;;;;;15.31;100.00;98123.66;8395599;28;20099;-79
2022/09/15 08:02:25;;;;;;;13.27;5.10;;;;;;;15.33;100.00;98126.81;8401509;28;20055;-80
2022/09/15 08:06:26;;;;;;;15.27;5.95;;;;;;;15.40;100.00;98121.47;8402515;28;20051;-79
2022/09/15 08:10:27;;;;;;;12.85;4.78;;;;;;;15.40;100.00;98126.91;8409936;28;20052;-80
2022/09/15 08:14:30;;;;;;;13.50;4.35;;;;;;;15.42;100.00;98140.16;8409992;28;20053;-81
2022/09/15 08:18:32;;;;;;;13.95;3.58;;;;;;;15.47;98.67;98142.56;8422559;28;20075;-82
2022/09/15 08:22:33;;;;;;;15.73;4.22;;;;;;;15.42;98.58;98140.94;8428796;28;20050;-80
2022/09/15 08:26:35;;;;;;;15.00;4.18;;;;;;;15.53;98.44;98136.50;8413787;28;20052;-81
2022/09/15 08:30:37;;;;;;;18.08;3.55;;;;;;;15.65;96.64;98142.91;8409224;28;20385;-82
2022/09/15 08:34:38;;;;;;;18.08;4.47;;;;;;;15.75;95.98;98142.28;8417451;28;20078;-82
2022/09/15 08:38:41;;;;;;;11.68;3.90;;;;;;;16.07;95.65;98143.53;8405189;28;20048;-83
2022/09/15 08:42:43;;;;;;;12.80;3.72;;;;;;;16.24;94.31;98142.19;8393691;28;20051;-82
2022/09/15 08:47:06;;;;;;;15.50;3.17;;;;;;;16.22;92.98;98139.84;8357059;28;20051;-81
2022/09/15 08:51:14;;;;;;;13.45;3.67;;;;;;;16.43;91.91;98134.69;8372161;28;20148;-82
2022/09/15 08:55:40;;;;;;;18.90;3.83;;;;;;;16.62;90.97;98136.47;8398130;28;20138;-85
2022/09/15 08:59:41;;;;;;;7.95;2.65;;;;;;;16.88;87.68;98132.88;8307162;28;20099;-82
2022/09/15 09:04:26;;;;;;;13.98;3.33;;;;;;;17.04;86.27;98117.06;8288902;28;20037;-84
2022/09/15 09:08:59;;;;;;;15.38;2.92;;;;;;;16.94;86.81;98125.13;8224876;28;20503;-82
2022/09/15 09:13:14;;;;;;;12.82;3.50;;;;;;;16.76;87.41;98114.06;8233390;28;20042;-84
2022/09/15 09:17:33;;;;;;;9.40;2.65;;;;;;;16.75;86.90;98096.91;8231147;28;20408;-83
2022/09/15 09:21:47;;;;;;;9.90;2.97;;;;;;;16.91;86.51;98093.97;8224377;28;20054;-84
2022/09/15 09:25:48;;;;;;;8.23;2.65;;;;;;;17.01;87.14;98104.19;8201223;29;20055;-83
2022/09/15 09:30:16;;;;;;;7.20;2.30;;;;;;;16.84;86.52;98099.34;8222283;28;20047;-83
2022/09/15 09:34:47;;;;;;;8.80;2.53;;;;;;;17.03;87.07;98096.41;8242646;28;20050;-83
2022/09/15 09:38:49;;;;;;;10.88;2.95;;;;;;;16.90;85.39;98095.13;8336030;28;20446;-83
2022/09/15 09:42:50;;;;;;;9.10;2.80;;;;;;;16.78;85.81;98095.38;8332393;28;20064;-84
2022/09/15 09:46:51;;;;;;;12.60;2.75;;;;;;;16.89;86.69;98096.28;8363104;28;20160;-81
2022/09/15 09:50:52;;;;;;;12.30;2.85;;;;;;;16.90;86.23;98103.28;8363081;28;20541;-84
2022/09/15 09:55:02;;;;;;;12.75;2.78;;;;;;;16.87;86.15;98114.94;8362554;28;20045;-82
2022/09/15 09:59:03;;;;;;;7.95;3.03;;;;;;;17.27;86.22;98117.69;8345484;28;20049;-83
2022/09/15 10:03:25;;;;;;;11.75;3.13;;;;;;;17.53;83.26;98107.75;8361893;28;20049;-84
2022/09/15 10:07:26;;;;;;;11.80;2.80;;;;;;;17.59;83.61;98111.69;8369889;28;20071;-83
2022/09/15 10:11:57;;;;;;;15.32;3.42;;;;;;;17.52;82.22;98111.63;8431449;28;20467;-83
2022/09/15 10:16:00;;;;;;;16.85;2.90;;;;;;;17.40;82.16;98109.19;8282251;28;20058;-82
2022/09/15 10:20:02;;;;;;;9.55;2.92;;;;;;;17.29;80.97;98109.88;8279922;28;20053;-82
2022/09/15 10:24:22;;;;;;;16.30;3.10;;;;;;;17.22;80.71;98098.94;8279939;28;20053;-83
2022/09/15 10:28:25;;;;;;;9.88;2.90;;;;;;;17.21;81.70;98107.47;8287325;28;20050;-84
2022/09/15 10:32:30;;;;;;;7.93;2.33;;;;;;;17.10;81.80;98101.94;8247531;28;20042;-83
2022/09/15 10:36:31;;;;;;;8.05;2.55;;;;;;;16.97;81.94;98092.47;8276818;28;20058;-82
2022/09/15 10:40:43;;;;;;;9.95;2.72;;;;;;;16.94;80.72;98098.66;8272210;28;20081;-83
2022/09/15 10:44:45;;;;;;;15.95;3.15;;;;;;;17.03;80.51;98101.84;8281295;28;20065;-83
2022/09/15 10:48:48;;;;;;;12.95;2.88;;;;;;;17.11;79.56;98108.19;8281422;28;20518;-85
2022/09/15 10:53:00;;;;;;;12.10;2.83;;;;;;;17.02;78.55;98094.06;8392093;28;20142;-83
2022/09/15 10:57:23;;;;;;;12.00;3.72;;;;;;;17.05;79.15;98094.09;8430840;28;20040;-82
2022/09/15 11:01:26;;;;;;;10.63;2.75;;;;;;;17.06;78.50;98095.66;8399891;28;20045;-84
2022/09/15 11:05:43;;;;;;;14.23;3.08;;;;;;;17.35;78.49;98095.91;8412164;28;20100;-83
2022/09/15 11:10:16;;;;;;;15.30;3.53;;;;;;;17.71;77.33;98103.25;8415758;28;20063;-84
2022/09/15 11:14:38;;;;;;;6.60;2.47;;;;;;;17.77;76.97;98107.16;8392440;28;20135;-84
2022/09/15 11:18:45;;;;;;;12.88;2.72;;;;;;;17.68;76.23;98093.84;8388383;28;20076;-84
2022/09/15 11:23:41;;;;;;;15.02;3.35;;;;;;;17.63;76.49;98090.69;8382748;28;20052;-83
2022/09/15 11:27:45;;;;;;;11.52;3.05;;;;;;;17.67;76.15;98092.28;8197139;29;20070;-85
2022/09/15 11:31:50;;;;;;;13.75;2.97;;;;;;;17.73;76.99;98089.97;8187075;29;20064;-86
2022/09/15 11:35:54;;;;;;;9.82;3.25;;;;;;;17.79;76.61;98082.22;8191501;29;20047;-84
2022/09/15 11:40:04;;;;;;;7.97;2.60;;;;;;;17.79;76.95;98072.06;8196305;29;20066;-83
2022/09/15 11:44:29;;;;;;;10.68;2.58;;;;;;;17.79;76.76;98072.06;8196594;29;20153;-86
2022/09/15 11:48:56;;;;;;;11.60;2.67;;;;;;;18.09;76.09;98069.91;8196037;29;20062;-84
2022/09/15 11:53:08;;;;;;;11.02;3.45;;;;;;;18.14;74.88;98061.34;8131469;29;20059;-82
2022/09/15 11:57:24;;;;;;;7.63;2.40;;;;;;;17.90;73.79;98066.69;8133186;29;20060;-83
2022/09/15 12:02:10;;;;;;;13.52;2.80;;;;;;;17.86;74.53;98066.66;8130538;28;20059;-83
2022/09/15 12:06:16;;;;;;;8.90;3.08;;;;;;;17.79;73.65;98058.44;8212727;28;20086;-89
2022/09/15 12:10:25;;;;;;;8.52;2.30;;;;;;;17.85;73.08;98058.84;8212837;28;20071;-81
2022/09/15 12:14:35;;;;;;;11.68;2.70;;;;;;;17.87;72.47;98062.75;8208687;28;20061;-84
2022/09/15 12:18:37;;;;;;;7.57;3.08;;;;;;;18.06;72.10;98059.75;8211665;28;20540;-82
2022/09/15 12:22:45;;;;;;;11.82;3.15;;;;;;;18.20;71.44;98052.78;8198109;28;20055;-81
2022/09/15 12:26:47;;;;;;;12.05;2.70;;;;;;;18.03;73.24;98065.22;8199173;28;20098;-83
2022/09/15 12:31:17;;;;;;;13.60;2.70;;;;;;;18.24;72.90;98048.13;8283875;28;20496;-82
2022/09/15 12:35:18;;;;;;;8.77;3.08;;;;;;;18.63;71.22;98037.31;8291671;28;20058;-83
2022/09/15 12:39:22;;;;;;;9.38;3.00;;;;;;;18.40;71.34;98040.38;8306476;28;20052;-82
2022/09/15 12:43:24;;;;;;;8.13;2.63;;;;;;;17.98;72.78;98041.75;8401899;28;20052;-83
2022/09/15 12:47:33;;;;;;;10.80;2.60;;;;;;;17.70;74.20;98047.06;8407242;28;20055;-82
2022/09/15 12:51:36;;;;;;;10.43;2.97;;;;;;;17.47;74.89;98047.28;8393174;28;20059;-82
2022/09/15 12:55:47;;;;;;;8.35;2.80;;;;;;;17.39;75.77;98047.59;8377203;28;20460;-84
2022/09/15 12:59:48;;;;;;;8.82;3.03;;;;;;;17.29;76.49;98044.41;8398832;28;20060;-83
2022/09/15 13:03:58;;;;;;;12.18;5.15;;;;;;;17.19;77.47;98049.78;8417211;28;20048;-84
2022/09/15 13:08:00;;;;;;;10.13;2.85;;;;;;;17.16;77.57;98040.41;8430704;28;20486;-83
2022/09/15 13:12:02;;;;;;;11.23;3.97;;;;;;;17.23;78.00;98024.09;8414929;28;20052;-83
2022/09/15 13:16:07;;;;;;;9.95;2.55;;;;;;;17.43;77.90;98032.03;8425989;28;20080;-82
2022/09/15 13:20:14;;;;;;;17.20;3.03;;;;;;;17.62;77.26;98034.53;8381635;28;20056;-83
2022/09/15 13:24:36;;;;;;;11.13;2.70;;;;;;;17.77;77.15;98030.72;8350886;28;20139;-83
2022/09/15 13:28:37;;;;;;;12.75;2.53;;;;;;;18.10;75.62;98033.22;8365844;28;20053;-83
2022/09/15 13:33:14;;;;;;;8.02;2.47;;;;;;;18.34;74.12;98023.56;8373497;28;20057;-83
2022/09/15 13:37:47;;;;;;;9.30;3.00;;;;;;;18.48;72.41;98017.34;8358735;28;20492;-83
2022/09/15 13:42:38;;;;;;;13.20;2.70;;;;;;;18.58;72.45;98013.88;8325595;28;20036;-82
2022/09/15 13:46:45;;;;;;;10.60;3.03;;;;;;;18.29;72.31;98013.00;8297010;28;20077;-82
2022/09/15 13:50:55;;;;;;;8.10;2.55;;;;;;;18.08;72.97;98018.41;8292785;28;20095;-83
2022/09/15 13:55:20;;;;;;;12.38;2.70;;;;;;;17.78;73.76;98004.97;8277681;28;20522;-83
2022/09/15 13:59:28;;;;;;;8.13;2.92;;;;;;;17.54;74.32;98005.59;8296680;28;20069;-83
2022/09/15 14:03:37;;;;;;;7.70;2.55;;;;;;;17.36;74.92;98010.94;8284213;28;20054;-83
2022/09/15 14:07:38;;;;;;;8.57;2.58;;;;;;;17.25;75.31;98016.31;8311203;28;20136;-84
2022/09/15 14:11:40;;;;;;;7.90;2.72;;;;;;;17.17;74.99;98003.78;8299607;28;20056;-83
2022/09/15 14:15:58;;;;;;;9.27;2.95;;;;;;;17.23;75.52;98002.28;8305749;28;20045;-84
2022/09/15 14:20:00;;;;;;;8.90;2.83;;;;;;;17.27;75.73;98008.53;8280914;28;20104;-83
2022/09/15 14:24:05;;;;;;;11.65;3.33;;;;;;;17.37;76.23;98011.72;8422343;28;20048;-84
2022/09/15 14:28:06;;;;;;;16.45;3.55;;;;;;;17.38;76.21;98018.75;8411325;28;20482;-83
2022/09/15 14:32:17;;;;;;;6.30;2.80;;;;;;;17.42;76.13;98019.53;8398074;28;20044;-83
2022/09/15 14:36:23;;;;;;;10.38;2.78;;;;;;;17.50;76.64;98018.44;8404740;28;20086;-84
2022/09/15 14:40:28;;;;;;;10.10;2.88;;;;;;;17.63;76.31;98019.72;8408070;28;20541;-83
2022/09/15 14:44:37;;;;;;;12.80;3.92;;;;;;;17.74;75.63;98015.09;8415085;28;20359;-83
2022/09/15 14:48:37;;;;;;;;;;;;;;;17.78;75.63;98018.63;8431355;28;20048;-82
2022/09/15 14:52:44;;;;;;;6.15;3.63;;;;;;;17.52;74.36;98007.91;8392230;28;19928;-82
2022/09/15 14:56:46;;;;;;;8.77;3.65;;;;;;;17.39;74.67;98003.94;8398132;28;20447;-83
2022/09/15 15:00:59;;;;;;;9.48;3.90;;;;;;;17.37;74.27;98006.25;8407506;28;20127;-83
2022/09/15 15:05:09;;;;;;;9.38;3.83;;;;;;;17.40;74.08;98005.47;8398018;28;20650;-83
2022/09/15 15:09:30;;;;;;;9.73;4.20;;;;;;;17.46;74.01;98009.44;8411972;28;20044;-84
2022/09/15 15:13:32;;;;;;;9.15;4.20;;;;;;;17.35;73.85;98014.03;8415358;28;20135;-81
2022/09/15 15:17:34;;;;;;;8.80;4.20;;;;;;;17.33;74.80;98006.25;8358934;28;20506;-83
2022/09/15 15:21:42;;;;;;;10.95;4.10;;;;;;;17.31;75.04;97998.44;8359380;28;20052;-84
2022/09/15 15:25:43;;;;;;;15.98;4.57;;;;;;;17.18;75.32;97999.88;8337749;28;20096;-83
2022/09/15 15:29:44;;;;;;;11.52;4.70;;;;;;;17.12;75.22;98001.41;8328491;28;20514;-84
2022/09/15 15:33:48;;;;;;;19.15;4.70;;;;;;;17.03;75.65;97998.22;8342339;28;20124;-81
2022/09/15 15:38:00;;;;;;;12.45;4.72;;;;;;;16.88;75.48;98001.97;8347798;28;20052;-84
2022/09/15 15:42:04;;;;;;;12.52;4.45;;;;;;;16.78;76.16;97997.22;8331051;28;20506;-81
2022/09/15 15:46:05;;;;;;;13.52;4.72;;;;;;;16.64;75.61;98002.56;8347997;28;20118;-82
2022/09/15 15:50:19;;;;;;;12.30;4.20;;;;;;;16.56;76.39;98009.81;8412244;28;20044;-83
2022/09/15 15:54:21;;;;;;;13.52;4.20;;;;;;;16.48;76.67;98011.72;8388247;28;20060;-83
2022/09/15 15:58:26;;;;;;;10.38;4.43;;;;;;;16.43;77.10;98014.78;8396585;28;20102;-83
2022/09/15 16:02:27;;;;;;;11.57;4.15;;;;;;;16.38;77.17;98017.84;8376392;28;20466;-81
2022/09/15 16:06:28;;;;;;;12.52;4.18;;;;;;;16.30;77.66;98015.38;8370052;28;20040;-82
2022/09/15 16:10:35;;;;;;;9.80;4.07;;;;;;;16.22;78.17;98014.53;8398420;28;20486;-82
2022/09/15 16:14:36;;;;;;;17.15;4.45;;;;;;;16.19;78.90;98026.16;8418449;28;20040;-83
2022/09/15 16:18:37;;;;;;;16.95;4.35;;;;;;;16.15;79.26;98030.78;8402858;28;20052;-83
2022/09/15 16:22:39;;;;;;;12.65;4.80;;;;;;;16.15;79.78;98019.91;8410533;28;20056;-83
2022/09/15 16:26:41;;;;;;;10.73;3.80;;;;;;;16.12;79.57;98025.31;8408558;28;20132;-83
2022/09/15 16:30:42;;;;;;;7.72;3.45;;;;;;;16.07;79.97;98033.81;8374096;28;20055;-83
2022/09/15 16:34:43;;;;;;;9.45;3.67;;;;;;;16.04;80.35;98035.31;8413421;28;20512;-83
2022/09/15 16:38:44;;;;;;;9.70;3.47;;;;;;;15.97;80.35;98029.78;8404828;28;20409;-83
2022/09/15 16:42:47;;;;;;;7.93;2.75;;;;;;;15.90;79.13;98029.69;8399973;28;20386;-83
2022/09/15 16:46:48;;;;;;;7.78;2.55;;;;;;;15.84;79.01;98036.63;8397714;28;20125;-82
2022/09/15 16:50:49;;;;;;;6.32;2.53;;;;;;;15.77;77.58;98047.41;8364851;28;20033;-82
2022/09/15 16:54:50;;;;;;;6.28;1.65;;;;;;;15.72;77.04;98050.44;8400229;28;20043;-83
2022/09/15 16:58:52;;;;;;;5.55;2.00;;;;;;;15.67;76.43;98037.16;8404274;28;20036;-82
2022/09/15 17:02:53;;;;;;;6.85;1.92;;;;;;;15.61;75.71;98037.47;8390222;28;20088;-83
2022/09/15 17:06:54;;;;;;;3.92;1.88;;;;;;;15.55;75.18;98041.66;8410073;28;20040;-83
2022/09/15 17:11:01;;;;;;;4.55;1.88;;;;;;;15.44;74.38;98040.69;8426685;28;20048;-84
2022/09/15 17:15:16;;;;;;;3.72;1.60;;;;;;;15.37;74.97;98051.47;8421581;28;20056;-83
2022/09/15 17:19:17;;;;;;;4.07;1.70;;;;;;;15.27;74.83;98057.53;8435176;28;20147;-83
2022/09/15 17:23:19;;;;;;;4.65;1.52;;;;;;;15.23;74.83;98051.22;8414790;28;20048;-83
2022/09/15 17:27:20;;;;;;;5.03;1.73;;;;;;;15.15;75.39;98057.72;8403667;28;20052;-82
2022/09/15 17:31:23;;;;;;;7.60;1.70;;;;;;;15.07;75.73;98064.19;8395496;28;20060;-83
2022/09/15 17:35:25;;;;;;;4.00;1.58;;;;;;;14.99;76.34;98062.50;8399282;28;20045;-83
2022/09/15 17:39:26;;;;;;;4.03;1.60;;;;;;;14.92;76.90;98067.81;8398726;28;20048;-83
2022/09/15 17:43:29;;;;;;;8.65;1.92;;;;;;;14.86;77.54;98069.28;8404387;28;20129;-83
2022/09/15 17:47:31;;;;;;;8.10;2.35;;;;;;;14.79;77.92;98076.16;8383648;28;20049;-83
2022/09/15 17:51:32;;;;;;;7.82;1.80;;;;;;;14.73;78.18;98072.16;8379477;28;20044;-83
2022/09/15 17:55:35;;;;;;;4.97;2.00;;;;;;;14.68;78.36;98075.16;8379126;28;20395;-83
2022/09/15 17:59:35;;;;;;;8.57;2.13;;;;;;;14.65;78.80;98070.44;8397661;28;20060;-83
2022/09/15 18:03:37;;;;;;;12.35;2.50;;;;;;;14.60;79.50;98068.00;8396921;28;20127;-83
2022/09/15 18:07:38;;;;;;;7.63;2.33;;;;;;;14.53;80.37;98078.78;8406689;28;20051;-83
2022/09/15 18:11:41;;;;;;;7.63;2.03;;;;;;;14.44;81.21;98075.47;8405215;28;20049;-83
2022/09/15 18:15:43;;;;;;;9.13;2.50;;;;;;;14.34;82.04;98086.88;8382821;28;20067;-83
2022/09/15 18:19:45;;;;;;;11.85;2.15;;;;;;;14.28;82.06;98088.31;8423424;28;20059;-80
2022/09/15 18:23:46;;;;;;;3.95;1.83;;;;;;;14.21;82.66;98082.75;8382719;28;20062;-80
2022/09/15 18:27:48;;;;;;;5.65;2.33;;;;;;;14.13;82.81;98089.16;8374728;28;20133;-79
2022/09/15 18:31:48;;;;;;;9.05;2.35;;;;;;;14.10;82.80;98103.47;8373506;28;20045;-81
2022/09/15 18:35:52;;;;;;;6.43;2.60;;;;;;;14.10;82.95;98098.03;8388412;28;20182;-80
2022/09/15 18:39:54;;;;;;;5.55;2.63;;;;;;;14.09;83.02;98088.31;8366075;28;20512;-80
2022/09/15 18:43:56;;;;;;;6.63;2.65;;;;;;;14.04;83.37;98094.81;8363753;28;20053;-81
2022/09/15 18:48:00;;;;;;;7.82;2.70;;;;;;;13.97;83.89;98105.50;8367393;28;20524;-80
2022/09/15 18:52:05;;;;;;;7.88;2.70;;;;;;;13.91;84.39;98107.69;8231787;28;20058;-80
2022/09/15 18:56:11;;;;;;;6.25;2.78;;;;;;;13.85;84.98;98103.69;8260261;28;20057;-80
2022/09/15 19:00:14;;;;;;;6.95;3.33;;;;;;;13.83;85.24;98105.97;8300333;28;20050;-81
2022/09/15 19:04:16;;;;;;;13.45;3.40;;;;;;;13.83;85.61;98111.41;8313648;28;20061;-80